sensor_id;sensor_type;location;lat;lon;timestamp;P1;durP1;ratioP1;P2;durP2;ratioP2
80711;SDS011;70078;51.596;5.678;2023-12-20T00:02:02;8.50;;;3.67;;
80711;SDS011;70078;51.596;5.678;2023-12-20T00:04:28;7.75;;;3.53;;
80711;SDS011;70078;51.596;5.678;2023-12-20T00:06:53;9.05;;;3.33;;
80711;SDS011;70078;51.596;5.678;2023-12-20T00:09:18;7.45;;;3.08;;
80711;SDS011;70078;51.596;5.678;2023-12-20T00:11:44;8.23;;;3.50;;
80711;SDS011;70078;51.596;5.678;2023-12-20T00:14:09;9.63;;;3.60;;
80711;SDS011;70078;51.596;5.678;2023-12-20T00:16:34;9.93;;;3.50;;
80711;SDS011;70078;51.596;5.678;2023-12-20T00:19:00;8.02;;;3.30;;
80711;SDS011;70078;51.596;5.678;2023-12-20T00:21:25;13.80;;;3.75;;
80711;SDS011;70078;51.596;5.678;2023-12-20T00:23:50;12.07;;;3.08;;
80711;SDS011;70078;51.596;5.678;2023-12-20T00:26:16;8.02;;;3.00;;
80711;SDS011;70078;51.596;5.678;2023-12-20T00:28:41;11.35;;;3.08;;
80711;SDS011;70078;51.596;5.678;2023-12-20T00:31:07;9.30;;;3.35;;
80711;SDS011;70078;51.596;5.678;2023-12-20T00:33:33;8.77;;;2.60;;
80711;SDS011;70078;51.596;5.678;2023-12-20T00:35:58;7.15;;;2.13;;
80711;SDS011;70078;51.596;5.678;2023-12-20T00:38:23;8.23;;;3.47;;
80711;SDS011;70078;51.596;5.678;2023-12-20T00:40:49;7.28;;;2.22;;
80711;SDS011;70078;51.596;5.678;2023-12-20T00:43:14;7.45;;;2.22;;
80711;SDS011;70078;51.596;5.678;2023-12-20T00:45:40;4.78;;;2.13;;
80711;SDS011;70078;51.596;5.678;2023-12-20T00:48:05;6.07;;;2.30;;
80711;SDS011;70078;51.596;5.678;2023-12-20T00:50:31;6.30;;;1.85;;
80711;SDS011;70078;51.596;5.678;2023-12-20T00:52:56;5.28;;;1.40;;
80711;SDS011;70078;51.596;5.678;2023-12-20T00:55:22;8.05;;;1.75;;
80711;SDS011;70078;51.596;5.678;2023-12-20T00:57:47;8.23;;;1.45;;
80711;SDS011;70078;51.596;5.678;2023-12-20T01:00:12;4.88;;;1.67;;
80711;SDS011;70078;51.596;5.678;2023-12-20T01:02:38;4.97;;;1.48;;
80711;SDS011;70078;51.596;5.678;2023-12-20T01:05:04;5.82;;;1.63;;
80711;SDS011;70078;51.596;5.678;2023-12-20T01:07:29;6.18;;;1.23;;
80711;SDS011;70078;51.596;5.678;2023-12-20T01:09:55;4.40;;;1.20;;
80711;SDS011;70078;51.596;5.678;2023-12-20T01:12:20;8.10;;;1.80;;
80711;SDS011;70078;51.596;5.678;2023-12-20T01:17:12;4.87;;;1.07;;
80711;SDS011;70078;51.596;5.678;2023-12-20T01:19:39;6.78;;;1.52;;
80711;SDS011;70078;51.596;5.678;2023-12-20T01:22:04;8.30;;;1.63;;
80711;SDS011;70078;51.596;5.678;2023-12-20T01:24:30;10.77;;;1.75;;
80711;SDS011;70078;51.596;5.678;2023-12-20T01:26:55;7.68;;;1.48;;
80711;SDS011;70078;51.596;5.678;2023-12-20T01:29:20;5.85;;;1.58;;
80711;SDS011;70078;51.596;5.678;2023-12-20T01:31:46;6.40;;;1.48;;
80711;SDS011;70078;51.596;5.678;2023-12-20T01:34:12;7.35;;;1.80;;
80711;SDS011;70078;51.596;5.678;2023-12-20T01:36:37;6.82;;;1.42;;
80711;SDS011;70078;51.596;5.678;2023-12-20T01:39:02;5.35;;;1.42;;
80711;SDS011;70078;51.596;5.678;2023-12-20T01:41:28;6.82;;;2.10;;
80711;SDS011;70078;51.596;5.678;2023-12-20T01:43:53;5.13;;;1.05;;
80711;SDS011;70078;51.596;5.678;2023-12-20T01:46:19;4.22;;;1.20;;
80711;SDS011;70078;51.596;5.678;2023-12-20T01:48:45;8.73;;;1.40;;
80711;SDS011;70078;51.596;5.678;2023-12-20T01:51:10;9.40;;;1.48;;
80711;SDS011;70078;51.596;5.678;2023-12-20T01:53:36;6.22;;;1.08;;
80711;SDS011;70078;51.596;5.678;2023-12-20T01:58:27;4.50;;;0.90;;
80711;SDS011;70078;51.596;5.678;2023-12-20T02:00:53;7.15;;;1.77;;
80711;SDS011;70078;51.596;5.678;2023-12-20T02:03:19;10.00;;;1.60;;
80711;SDS011;70078;51.596;5.678;2023-12-20T02:05:46;6.05;;;1.85;;
80711;SDS011;70078;51.596;5.678;2023-12-20T02:08:12;5.28;;;1.40;;
80711;SDS011;70078;51.596;5.678;2023-12-20T02:10:38;5.20;;;1.65;;
80711;SDS011;70078;51.596;5.678;2023-12-20T02:13:03;5.43;;;1.67;;
80711;SDS011;70078;51.596;5.678;2023-12-20T02:15:29;6.68;;;1.50;;
80711;SDS011;70078;51.596;5.678;2023-12-20T02:17:54;7.95;;;1.33;;
80711;SDS011;70078;51.596;5.678;2023-12-20T02:20:20;7.97;;;1.48;;
80711;SDS011;70078;51.596;5.678;2023-12-20T02:22:45;11.00;;;1.58;;
80711;SDS011;70078;51.596;5.678;2023-12-20T02:25:10;5.15;;;1.40;;
80711;SDS011;70078;51.596;5.678;2023-12-20T02:27:36;5.43;;;1.13;;
80711;SDS011;70078;51.596;5.678;2023-12-20T02:30:01;5.82;;;1.42;;
80711;SDS011;70078;51.596;5.678;2023-12-20T02:32:27;11.95;;;1.90;;
80711;SDS011;70078;51.596;5.678;2023-12-20T02:34:53;9.05;;;2.25;;
80711;SDS011;70078;51.596;5.678;2023-12-20T02:37:19;7.47;;;1.73;;
80711;SDS011;70078;51.596;5.678;2023-12-20T02:39:44;11.10;;;1.40;;
80711;SDS011;70078;51.596;5.678;2023-12-20T02:42:10;5.70;;;1.42;;
80711;SDS011;70078;51.596;5.678;2023-12-20T02:44:35;5.25;;;1.27;;
80711;SDS011;70078;51.596;5.678;2023-12-20T02:47:01;8.65;;;1.67;;
80711;SDS011;70078;51.596;5.678;2023-12-20T02:49:27;7.68;;;1.70;;
80711;SDS011;70078;51.596;5.678;2023-12-20T02:51:52;9.48;;;2.10;;
80711;SDS011;70078;51.596;5.678;2023-12-20T02:54:17;7.72;;;1.40;;
80711;SDS011;70078;51.596;5.678;2023-12-20T02:56:42;11.52;;;2.08;;
80711;SDS011;70078;51.596;5.678;2023-12-20T02:59:08;9.88;;;1.83;;
80711;SDS011;70078;51.596;5.678;2023-12-20T03:01:41;6.28;;;1.80;;
80711;SDS011;70078;51.596;5.678;2023-12-20T03:04:07;9.32;;;1.95;;
80711;SDS011;70078;51.596;5.678;2023-12-20T03:06:32;5.72;;;1.67;;
80711;SDS011;70078;51.596;5.678;2023-12-20T03:08:58;8.40;;;2.10;;
80711;SDS011;70078;51.596;5.678;2023-12-20T03:11:26;8.43;;;2.40;;
80711;SDS011;70078;51.596;5.678;2023-12-20T03:13:51;3.83;;;1.48;;
80711;SDS011;70078;51.596;5.678;2023-12-20T03:16:17;8.88;;;1.95;;
80711;SDS011;70078;51.596;5.678;2023-12-20T03:18:42;7.72;;;1.77;;
80711;SDS011;70078;51.596;5.678;2023-12-20T03:21:07;8.55;;;1.83;;
80711;SDS011;70078;51.596;5.678;2023-12-20T03:23:33;6.80;;;1.80;;
80711;SDS011;70078;51.596;5.678;2023-12-20T03:25:59;5.95;;;1.65;;
80711;SDS011;70078;51.596;5.678;2023-12-20T03:28:24;12.85;;;1.88;;
80711;SDS011;70078;51.596;5.678;2023-12-20T03:30:51;8.05;;;1.70;;
80711;SDS011;70078;51.596;5.678;2023-12-20T03:33:16;6.70;;;1.60;;
80711;SDS011;70078;51.596;5.678;2023-12-20T03:35:41;8.80;;;1.88;;
80711;SDS011;70078;51.596;5.678;2023-12-20T03:38:07;9.15;;;1.63;;
80711;SDS011;70078;51.596;5.678;2023-12-20T03:40:35;18.73;;;2.10;;
80711;SDS011;70078;51.596;5.678;2023-12-20T03:43:01;7.63;;;1.98;;
80711;SDS011;70078;51.596;5.678;2023-12-20T03:45:26;13.20;;;2.25;;
80711;SDS011;70078;51.596;5.678;2023-12-20T03:47:52;11.23;;;2.75;;
80711;SDS011;70078;51.596;5.678;2023-12-20T03:50:24;9.52;;;2.17;;
80711;SDS011;70078;51.596;5.678;2023-12-20T03:52:50;14.98;;;2.05;;
80711;SDS011;70078;51.596;5.678;2023-12-20T03:55:15;11.20;;;1.80;;
80711;SDS011;70078;51.596;5.678;2023-12-20T03:57:40;8.38;;;1.67;;
80711;SDS011;70078;51.596;5.678;2023-12-20T04:00:07;8.18;;;1.90;;
80711;SDS011;70078;51.596;5.678;2023-12-20T04:02:39;9.73;;;1.70;;
80711;SDS011;70078;51.596;5.678;2023-12-20T04:05:05;7.93;;;1.80;;
80711;SDS011;70078;51.596;5.678;2023-12-20T04:07:30;9.65;;;1.83;;
80711;SDS011;70078;51.596;5.678;2023-12-20T04:09:56;8.82;;;2.00;;
80711;SDS011;70078;51.596;5.678;2023-12-20T04:12:21;10.32;;;1.88;;
80711;SDS011;70078;51.596;5.678;2023-12-20T04:14:46;7.80;;;2.25;;
80711;SDS011;70078;51.596;5.678;2023-12-20T04:17:12;13.15;;;1.80;;
80711;SDS011;70078;51.596;5.678;2023-12-20T04:19:37;8.52;;;1.48;;
80711;SDS011;70078;51.596;5.678;2023-12-20T04:22:02;8.95;;;2.00;;
80711;SDS011;70078;51.596;5.678;2023-12-20T04:24:28;9.10;;;1.80;;
80711;SDS011;70078;51.596;5.678;2023-12-20T04:26:53;6.82;;;1.70;;
80711;SDS011;70078;51.596;5.678;2023-12-20T04:29:19;9.65;;;1.70;;
80711;SDS011;70078;51.596;5.678;2023-12-20T04:31:44;7.63;;;1.60;;
80711;SDS011;70078;51.596;5.678;2023-12-20T04:34:09;5.47;;;1.67;;
80711;SDS011;70078;51.596;5.678;2023-12-20T04:36:34;6.20;;;1.77;;
80711;SDS011;70078;51.596;5.678;2023-12-20T04:39:00;12.75;;;2.70;;
80711;SDS011;70078;51.596;5.678;2023-12-20T04:41:25;13.23;;;2.47;;
80711;SDS011;70078;51.596;5.678;2023-12-20T04:43:52;9.35;;;2.00;;
80711;SDS011;70078;51.596;5.678;2023-12-20T04:46:18;9.85;;;2.67;;
80711;SDS011;70078;51.596;5.678;2023-12-20T04:48:43;8.45;;;1.70;;
80711;SDS011;70078;51.596;5.678;2023-12-20T04:51:08;8.23;;;1.90;;
80711;SDS011;70078;51.596;5.678;2023-12-20T04:53:33;9.32;;;1.88;;
80711;SDS011;70078;51.596;5.678;2023-12-20T04:55:59;7.10;;;2.00;;
80711;SDS011;70078;51.596;5.678;2023-12-20T04:58:24;13.73;;;2.88;;
80711;SDS011;70078;51.596;5.678;2023-12-20T05:00:50;9.60;;;2.75;;
80711;SDS011;70078;51.596;5.678;2023-12-20T05:03:15;7.00;;;1.92;;
80711;SDS011;70078;51.596;5.678;2023-12-20T05:05:41;11.05;;;2.03;;
80711;SDS011;70078;51.596;5.678;2023-12-20T05:08:06;10.55;;;2.60;;
80711;SDS011;70078;51.596;5.678;2023-12-20T05:10:31;11.63;;;2.35;;
80711;SDS011;70078;51.596;5.678;2023-12-20T05:12:56;10.45;;;2.40;;
80711;SDS011;70078;51.596;5.678;2023-12-20T05:15:22;6.85;;;2.35;;
80711;SDS011;70078;51.596;5.678;2023-12-20T05:17:47;7.63;;;2.95;;
80711;SDS011;70078;51.596;5.678;2023-12-20T05:20:12;11.25;;;2.85;;
80711;SDS011;70078;51.596;5.678;2023-12-20T05:22:37;8.18;;;1.98;;
80711;SDS011;70078;51.596;5.678;2023-12-20T05:25:03;10.00;;;2.60;;
80711;SDS011;70078;51.596;5.678;2023-12-20T05:27:29;8.98;;;1.73;;
80711;SDS011;70078;51.596;5.678;2023-12-20T05:29:54;14.35;;;2.60;;
80711;SDS011;70078;51.596;5.678;2023-12-20T05:32:22;11.93;;;1.98;;
80711;SDS011;70078;51.596;5.678;2023-12-20T05:34:48;8.38;;;1.83;;
80711;SDS011;70078;51.596;5.678;2023-12-20T05:37:13;6.35;;;1.90;;
80711;SDS011;70078;51.596;5.678;2023-12-20T05:39:38;9.70;;;1.77;;
80711;SDS011;70078;51.596;5.678;2023-12-20T05:42:04;11.77;;;2.35;;
80711;SDS011;70078;51.596;5.678;2023-12-20T05:44:29;10.70;;;2.30;;
80711;SDS011;70078;51.596;5.678;2023-12-20T05:46:55;10.50;;;2.28;;
80711;SDS011;70078;51.596;5.678;2023-12-20T05:49:20;11.77;;;2.70;;
80711;SDS011;70078;51.596;5.678;2023-12-20T05:51:46;9.98;;;2.28;;
80711;SDS011;70078;51.596;5.678;2023-12-20T05:54:12;9.80;;;2.17;;
80711;SDS011;70078;51.596;5.678;2023-12-20T05:56:37;10.63;;;1.58;;
80711;SDS011;70078;51.596;5.678;2023-12-20T05:59:02;8.90;;;1.33;;
80711;SDS011;70078;51.596;5.678;2023-12-20T06:01:28;5.75;;;2.03;;
80711;SDS011;70078;51.596;5.678;2023-12-20T06:03:53;17.70;;;2.83;;
80711;SDS011;70078;51.596;5.678;2023-12-20T06:06:18;6.93;;;2.13;;
80711;SDS011;70078;51.596;5.678;2023-12-20T06:08:44;10.60;;;1.50;;
80711;SDS011;70078;51.596;5.678;2023-12-20T06:11:09;8.05;;;1.88;;
80711;SDS011;70078;51.596;5.678;2023-12-20T06:13:34;11.95;;;2.20;;
80711;SDS011;70078;51.596;5.678;2023-12-20T06:16:00;15.38;;;3.00;;
80711;SDS011;70078;51.596;5.678;2023-12-20T06:18:26;7.18;;;1.63;;
80711;SDS011;70078;51.596;5.678;2023-12-20T06:20:51;9.60;;;1.80;;
80711;SDS011;70078;51.596;5.678;2023-12-20T06:23:16;12.32;;;2.95;;
80711;SDS011;70078;51.596;5.678;2023-12-20T06:25:41;10.75;;;2.47;;
80711;SDS011;70078;51.596;5.678;2023-12-20T06:28:07;8.25;;;2.33;;
80711;SDS011;70078;51.596;5.678;2023-12-20T06:30:32;8.13;;;2.15;;
80711;SDS011;70078;51.596;5.678;2023-12-20T06:32:58;10.07;;;2.85;;
80711;SDS011;70078;51.596;5.678;2023-12-20T06:35:23;11.23;;;2.97;;
80711;SDS011;70078;51.596;5.678;2023-12-20T06:37:49;8.00;;;2.20;;
80711;SDS011;70078;51.596;5.678;2023-12-20T06:40:15;11.73;;;2.40;;
80711;SDS011;70078;51.596;5.678;2023-12-20T06:42:41;10.48;;;2.10;;
80711;SDS011;70078;51.596;5.678;2023-12-20T06:45:06;7.43;;;2.00;;
80711;SDS011;70078;51.596;5.678;2023-12-20T06:47:32;13.93;;;2.72;;
80711;SDS011;70078;51.596;5.678;2023-12-20T06:49:57;11.55;;;2.38;;
80711;SDS011;70078;51.596;5.678;2023-12-20T06:52:22;7.85;;;1.77;;
80711;SDS011;70078;51.596;5.678;2023-12-20T06:54:48;9.88;;;1.88;;
80711;SDS011;70078;51.596;5.678;2023-12-20T06:57:13;8.23;;;1.73;;
80711;SDS011;70078;51.596;5.678;2023-12-20T06:59:41;7.65;;;1.90;;
80711;SDS011;70078;51.596;5.678;2023-12-20T07:02:08;11.52;;;2.80;;
80711;SDS011;70078;51.596;5.678;2023-12-20T07:04:33;5.95;;;1.92;;
80711;SDS011;70078;51.596;5.678;2023-12-20T07:06:59;8.50;;;2.38;;
80711;SDS011;70078;51.596;5.678;2023-12-20T07:09:25;8.60;;;1.95;;
80711;SDS011;70078;51.596;5.678;2023-12-20T07:11:51;9.18;;;2.38;;
80711;SDS011;70078;51.596;5.678;2023-12-20T07:14:16;15.70;;;3.15;;
80711;SDS011;70078;51.596;5.678;2023-12-20T07:16:42;7.53;;;2.25;;
80711;SDS011;70078;51.596;5.678;2023-12-20T07:19:07;10.93;;;3.25;;
80711;SDS011;70078;51.596;5.678;2023-12-20T07:21:32;10.07;;;3.22;;
80711;SDS011;70078;51.596;5.678;2023-12-20T07:23:57;12.43;;;4.35;;
80711;SDS011;70078;51.596;5.678;2023-12-20T07:26:23;9.00;;;3.20;;
80711;SDS011;70078;51.596;5.678;2023-12-20T07:28:48;8.98;;;2.67;;
80711;SDS011;70078;51.596;5.678;2023-12-20T07:31:15;7.40;;;2.70;;
80711;SDS011;70078;51.596;5.678;2023-12-20T07:33:41;7.78;;;3.25;;
80711;SDS011;70078;51.596;5.678;2023-12-20T07:36:06;11.45;;;2.83;;
80711;SDS011;70078;51.596;5.678;2023-12-20T07:38:32;7.80;;;2.55;;
80711;SDS011;70078;51.596;5.678;2023-12-20T07:40:57;10.02;;;2.58;;
80711;SDS011;70078;51.596;5.678;2023-12-20T07:43:23;11.88;;;2.80;;
80711;SDS011;70078;51.596;5.678;2023-12-20T07:45:48;9.93;;;2.40;;
80711;SDS011;70078;51.596;5.678;2023-12-20T07:48:13;8.63;;;2.50;;
80711;SDS011;70078;51.596;5.678;2023-12-20T07:50:39;14.30;;;2.88;;
80711;SDS011;70078;51.596;5.678;2023-12-20T07:53:04;15.68;;;2.65;;
80711;SDS011;70078;51.596;5.678;2023-12-20T07:55:29;8.82;;;2.67;;
80711;SDS011;70078;51.596;5.678;2023-12-20T07:57:56;16.45;;;3.90;;
80711;SDS011;70078;51.596;5.678;2023-12-20T08:00:21;6.65;;;2.05;;
80711;SDS011;70078;51.596;5.678;2023-12-20T08:02:46;11.55;;;2.85;;
80711;SDS011;70078;51.596;5.678;2023-12-20T08:05:12;12.48;;;2.92;;
80711;SDS011;70078;51.596;5.678;2023-12-20T08:07:38;11.85;;;2.67;;
80711;SDS011;70078;51.596;5.678;2023-12-20T08:10:04;12.18;;;2.95;;
80711;SDS011;70078;51.596;5.678;2023-12-20T08:12:30;11.88;;;2.50;;
80711;SDS011;70078;51.596;5.678;2023-12-20T08:14:55;11.10;;;2.50;;
80711;SDS011;70078;51.596;5.678;2023-12-20T08:17:22;12.05;;;2.70;;
80711;SDS011;70078;51.596;5.678;2023-12-20T08:22:13;13.80;;;2.60;;
80711;SDS011;70078;51.596;5.678;2023-12-20T08:24:38;11.23;;;1.70;;
80711;SDS011;70078;51.596;5.678;2023-12-20T08:27:04;8.48;;;2.03;;
80711;SDS011;70078;51.596;5.678;2023-12-20T08:29:29;15.57;;;2.13;;
80711;SDS011;70078;51.596;5.678;2023-12-20T08:31:55;10.60;;;2.35;;
80711;SDS011;70078;51.596;5.678;2023-12-20T08:34:21;10.18;;;1.92;;
80711;SDS011;70078;51.596;5.678;2023-12-20T08:36:46;8.35;;;2.47;;
80711;SDS011;70078;51.596;5.678;2023-12-20T08:39:11;5.30;;;1.65;;
80711;SDS011;70078;51.596;5.678;2023-12-20T08:41:37;8.75;;;1.83;;
80711;SDS011;70078;51.596;5.678;2023-12-20T08:44:02;10.75;;;2.67;;
80711;SDS011;70078;51.596;5.678;2023-12-20T08:46:28;14.48;;;3.03;;
80711;SDS011;70078;51.596;5.678;2023-12-20T08:48:54;8.55;;;2.15;;
80711;SDS011;70078;51.596;5.678;2023-12-20T08:51:19;14.20;;;2.88;;
80711;SDS011;70078;51.596;5.678;2023-12-20T08:53:46;18.08;;;3.30;;
80711;SDS011;70078;51.596;5.678;2023-12-20T08:56:12;10.35;;;2.88;;
80711;SDS011;70078;51.596;5.678;2023-12-20T08:58:38;10.48;;;2.28;;
80711;SDS011;70078;51.596;5.678;2023-12-20T09:01:03;8.75;;;2.35;;
80711;SDS011;70078;51.596;5.678;2023-12-20T09:03:28;9.82;;;2.58;;
80711;SDS011;70078;51.596;5.678;2023-12-20T09:05:53;7.97;;;2.08;;
80711;SDS011;70078;51.596;5.678;2023-12-20T09:08:19;9.38;;;1.83;;
80711;SDS011;70078;51.596;5.678;2023-12-20T09:10:44;15.02;;;2.92;;
80711;SDS011;70078;51.596;5.678;2023-12-20T09:13:09;9.27;;;2.25;;
80711;SDS011;70078;51.596;5.678;2023-12-20T09:15:35;13.55;;;2.60;;
80711;SDS011;70078;51.596;5.678;2023-12-20T09:18:00;6.78;;;2.10;;
80711;SDS011;70078;51.596;5.678;2023-12-20T09:20:26;10.32;;;2.95;;
80711;SDS011;70078;51.596;5.678;2023-12-20T09:25:17;7.33;;;2.03;;
80711;SDS011;70078;51.596;5.678;2023-12-20T09:27:43;11.90;;;3.22;;
80711;SDS011;70078;51.596;5.678;2023-12-20T09:30:08;8.48;;;2.80;;
80711;SDS011;70078;51.596;5.678;2023-12-20T09:32:34;9.32;;;2.15;;
80711;SDS011;70078;51.596;5.678;2023-12-20T09:34:59;11.38;;;3.05;;
80711;SDS011;70078;51.596;5.678;2023-12-20T09:37:28;9.50;;;2.10;;
80711;SDS011;70078;51.596;5.678;2023-12-20T09:39:53;12.93;;;3.75;;
80711;SDS011;70078;51.596;5.678;2023-12-20T09:42:24;8.65;;;2.75;;
80711;SDS011;70078;51.596;5.678;2023-12-20T09:45:00;8.18;;;2.85;;
80711;SDS011;70078;51.596;5.678;2023-12-20T09:47:28;10.90;;;2.85;;
80711;SDS011;70078;51.596;5.678;2023-12-20T09:49:53;11.32;;;2.20;;
80711;SDS011;70078;51.596;5.678;2023-12-20T09:52:19;8.50;;;3.22;;
80711;SDS011;70078;51.596;5.678;2023-12-20T09:54:47;9.23;;;2.55;;
80711;SDS011;70078;51.596;5.678;2023-12-20T09:57:14;10.10;;;2.42;;
80711;SDS011;70078;51.596;5.678;2023-12-20T09:59:40;6.43;;;2.40;;
80711;SDS011;70078;51.596;5.678;2023-12-20T10:02:05;10.00;;;3.10;;
80711;SDS011;70078;51.596;5.678;2023-12-20T10:04:37;7.75;;;2.70;;
80711;SDS011;70078;51.596;5.678;2023-12-20T10:07:07;11.52;;;2.72;;
80711;SDS011;70078;51.596;5.678;2023-12-20T10:09:33;11.35;;;1.98;;
80711;SDS011;70078;51.596;5.678;2023-12-20T10:11:59;6.97;;;1.88;;
80711;SDS011;70078;51.596;5.678;2023-12-20T10:14:24;6.97;;;2.20;;
80711;SDS011;70078;51.596;5.678;2023-12-20T10:16:50;7.97;;;2.08;;
80711;SDS011;70078;51.596;5.678;2023-12-20T10:19:19;9.20;;;2.20;;
80711;SDS011;70078;51.596;5.678;2023-12-20T10:21:44;15.23;;;3.03;;
80711;SDS011;70078;51.596;5.678;2023-12-20T10:24:10;9.88;;;2.50;;
80711;SDS011;70078;51.596;5.678;2023-12-20T10:26:42;11.23;;;2.40;;
80711;SDS011;70078;51.596;5.678;2023-12-20T10:29:07;9.82;;;2.75;;
80711;SDS011;70078;51.596;5.678;2023-12-20T10:31:33;13.48;;;2.15;;
80711;SDS011;70078;51.596;5.678;2023-12-20T10:34:03;7.45;;;2.20;;
80711;SDS011;70078;51.596;5.678;2023-12-20T10:36:30;10.18;;;2.35;;
80711;SDS011;70078;51.596;5.678;2023-12-20T10:38:57;6.57;;;2.20;;
80711;SDS011;70078;51.596;5.678;2023-12-20T10:41:27;8.70;;;2.22;;
80711;SDS011;70078;51.596;5.678;2023-12-20T10:43:58;5.65;;;1.25;;
80711;SDS011;70078;51.596;5.678;2023-12-20T10:46:25;7.32;;;2.03;;
80711;SDS011;70078;51.596;5.678;2023-12-20T10:48:54;8.52;;;1.85;;
80711;SDS011;70078;51.596;5.678;2023-12-20T10:51:21;12.00;;;2.70;;
80711;SDS011;70078;51.596;5.678;2023-12-20T10:53:47;8.43;;;2.22;;
80711;SDS011;70078;51.596;5.678;2023-12-20T10:58:41;11.13;;;3.08;;
80711;SDS011;70078;51.596;5.678;2023-12-20T11:01:08;9.63;;;2.50;;
80711;SDS011;70078;51.596;5.678;2023-12-20T11:03:34;11.18;;;2.45;;
80711;SDS011;70078;51.596;5.678;2023-12-20T11:06:07;7.78;;;2.20;;
80711;SDS011;70078;51.596;5.678;2023-12-20T11:11:20;12.05;;;2.38;;
80711;SDS011;70078;51.596;5.678;2023-12-20T11:13:56;13.13;;;2.88;;
80711;SDS011;70078;51.596;5.678;2023-12-20T11:16:26;8.25;;;1.83;;
80711;SDS011;70078;51.596;5.678;2023-12-20T11:18:51;11.73;;;2.35;;
80711;SDS011;70078;51.596;5.678;2023-12-20T11:21:17;10.80;;;2.17;;
80711;SDS011;70078;51.596;5.678;2023-12-20T11:23:42;17.05;;;2.67;;
80711;SDS011;70078;51.596;5.678;2023-12-20T11:26:08;9.00;;;1.88;;
80711;SDS011;70078;51.596;5.678;2023-12-20T11:28:33;9.30;;;2.45;;
80711;SDS011;70078;51.596;5.678;2023-12-20T11:31:00;12.48;;;2.00;;
80711;SDS011;70078;51.596;5.678;2023-12-20T11:33:30;9.45;;;1.73;;
80711;SDS011;70078;51.596;5.678;2023-12-20T11:36:00;10.43;;;3.47;;
80711;SDS011;70078;51.596;5.678;2023-12-20T11:38:25;17.08;;;6.25;;
80711;SDS011;70078;51.596;5.678;2023-12-20T11:40:53;25.17;;;8.13;;
80711;SDS011;70078;51.596;5.678;2023-12-20T11:43:32;10.57;;;3.47;;
80711;SDS011;70078;51.596;5.678;2023-12-20T11:46:04;10.60;;;4.50;;
80711;SDS011;70078;51.596;5.678;2023-12-20T11:48:34;14.60;;;6.03;;
80711;SDS011;70078;51.596;5.678;2023-12-20T11:51:10;10.68;;;2.83;;
80711;SDS011;70078;51.596;5.678;2023-12-20T11:53:37;10.98;;;2.80;;
80711;SDS011;70078;51.596;5.678;2023-12-20T11:56:03;6.50;;;2.10;;
80711;SDS011;70078;51.596;5.678;2023-12-20T11:58:30;8.07;;;2.40;;
80711;SDS011;70078;51.596;5.678;2023-12-20T12:00:56;13.50;;;3.25;;
80711;SDS011;70078;51.596;5.678;2023-12-20T12:03:21;9.23;;;2.33;;
80711;SDS011;70078;51.596;5.678;2023-12-20T12:05:48;10.95;;;3.13;;
80711;SDS011;70078;51.596;5.678;2023-12-20T12:08:13;8.00;;;2.47;;
80711;SDS011;70078;51.596;5.678;2023-12-20T12:10:39;8.45;;;2.05;;
80711;SDS011;70078;51.596;5.678;2023-12-20T12:13:04;8.38;;;3.05;;
80711;SDS011;70078;51.596;5.678;2023-12-20T12:15:29;9.95;;;2.80;;
80711;SDS011;70078;51.596;5.678;2023-12-20T12:17:55;7.63;;;2.40;;
80711;SDS011;70078;51.596;5.678;2023-12-20T12:20:22;7.30;;;2.45;;
80711;SDS011;70078;51.596;5.678;2023-12-20T12:22:58;5.93;;;2.00;;
80711;SDS011;70078;51.596;5.678;2023-12-20T12:25:28;10.43;;;2.08;;
80711;SDS011;70078;51.596;5.678;2023-12-20T12:27:55;6.65;;;2.03;;
80711;SDS011;70078;51.596;5.678;2023-12-20T12:30:21;9.10;;;2.53;;
80711;SDS011;70078;51.596;5.678;2023-12-20T12:32:47;9.25;;;2.25;;
80711;SDS011;70078;51.596;5.678;2023-12-20T12:35:13;8.35;;;2.13;;
80711;SDS011;70078;51.596;5.678;2023-12-20T12:37:39;10.63;;;2.83;;
80711;SDS011;70078;51.596;5.678;2023-12-20T12:40:09;10.98;;;2.90;;
80711;SDS011;70078;51.596;5.678;2023-12-20T12:42:36;11.88;;;2.83;;
80711;SDS011;70078;51.596;5.678;2023-12-20T12:45:02;10.60;;;2.13;;
80711;SDS011;70078;51.596;5.678;2023-12-20T12:47:27;10.60;;;1.83;;
80711;SDS011;70078;51.596;5.678;2023-12-20T12:49:52;12.68;;;3.00;;
80711;SDS011;70078;51.596;5.678;2023-12-20T12:52:18;11.43;;;2.47;;
80711;SDS011;70078;51.596;5.678;2023-12-20T12:54:44;9.95;;;2.08;;
80711;SDS011;70078;51.596;5.678;2023-12-20T12:57:10;13.00;;;2.22;;
80711;SDS011;70078;51.596;5.678;2023-12-20T12:59:36;9.63;;;2.20;;
80711;SDS011;70078;51.596;5.678;2023-12-20T13:02:01;6.40;;;1.90;;
80711;SDS011;70078;51.596;5.678;2023-12-20T13:04:27;8.82;;;2.58;;
80711;SDS011;70078;51.596;5.678;2023-12-20T13:06:52;10.88;;;2.28;;
80711;SDS011;70078;51.596;5.678;2023-12-20T13:09:17;10.88;;;2.42;;
80711;SDS011;70078;51.596;5.678;2023-12-20T13:11:44;8.85;;;2.08;;
80711;SDS011;70078;51.596;5.678;2023-12-20T13:14:09;16.85;;;2.85;;
80711;SDS011;70078;51.596;5.678;2023-12-20T13:16:40;8.95;;;1.98;;
80711;SDS011;70078;51.596;5.678;2023-12-20T13:19:05;10.20;;;2.80;;
80711;SDS011;70078;51.596;5.678;2023-12-20T13:21:30;11.40;;;2.63;;
80711;SDS011;70078;51.596;5.678;2023-12-20T13:23:56;6.75;;;1.35;;
80711;SDS011;70078;51.596;5.678;2023-12-20T13:26:21;8.35;;;2.33;;
80711;SDS011;70078;51.596;5.678;2023-12-20T13:28:46;10.00;;;2.55;;
80711;SDS011;70078;51.596;5.678;2023-12-20T13:31:11;10.98;;;2.60;;
80711;SDS011;70078;51.596;5.678;2023-12-20T13:33:37;11.90;;;2.80;;
80711;SDS011;70078;51.596;5.678;2023-12-20T13:36:02;14.10;;;2.83;;
80711;SDS011;70078;51.596;5.678;2023-12-20T13:38:29;14.10;;;2.55;;
80711;SDS011;70078;51.596;5.678;2023-12-20T13:40:54;6.25;;;2.38;;
80711;SDS011;70078;51.596;5.678;2023-12-20T13:43:20;12.40;;;3.22;;
80711;SDS011;70078;51.596;5.678;2023-12-20T13:45:47;10.13;;;2.45;;
80711;SDS011;70078;51.596;5.678;2023-12-20T13:50:38;9.38;;;2.72;;
80711;SDS011;70078;51.596;5.678;2023-12-20T13:53:04;8.80;;;3.05;;
80711;SDS011;70078;51.596;5.678;2023-12-20T13:55:29;4.90;;;2.47;;
80711;SDS011;70078;51.596;5.678;2023-12-20T13:57:55;9.90;;;2.90;;
80711;SDS011;70078;51.596;5.678;2023-12-20T14:00:21;10.95;;;2.20;;
80711;SDS011;70078;51.596;5.678;2023-12-20T14:02:47;12.13;;;2.78;;
80711;SDS011;70078;51.596;5.678;2023-12-20T14:05:12;11.57;;;3.10;;
80711;SDS011;70078;51.596;5.678;2023-12-20T14:07:39;11.88;;;3.58;;
80711;SDS011;70078;51.596;5.678;2023-12-20T14:10:05;7.35;;;2.83;;
80711;SDS011;70078;51.596;5.678;2023-12-20T14:12:31;15.45;;;2.20;;
80711;SDS011;70078;51.596;5.678;2023-12-20T14:15:00;11.95;;;3.35;;
80711;SDS011;70078;51.596;5.678;2023-12-20T14:17:26;9.02;;;2.47;;
80711;SDS011;70078;51.596;5.678;2023-12-20T14:19:51;17.35;;;3.25;;
80711;SDS011;70078;51.596;5.678;2023-12-20T14:22:16;11.30;;;3.17;;
80711;SDS011;70078;51.596;5.678;2023-12-20T14:24:42;9.15;;;2.63;;
80711;SDS011;70078;51.596;5.678;2023-12-20T14:27:07;10.05;;;2.83;;
80711;SDS011;70078;51.596;5.678;2023-12-20T14:29:34;8.00;;;2.65;;
80711;SDS011;70078;51.596;5.678;2023-12-20T14:31:59;9.85;;;2.55;;
80711;SDS011;70078;51.596;5.678;2023-12-20T14:34:27;6.13;;;2.30;;
80711;SDS011;70078;51.596;5.678;2023-12-20T14:36:52;9.95;;;2.40;;
80711;SDS011;70078;51.596;5.678;2023-12-20T14:39:18;9.25;;;3.08;;
80711;SDS011;70078;51.596;5.678;2023-12-20T14:41:43;12.13;;;3.42;;
80711;SDS011;70078;51.596;5.678;2023-12-20T14:44:09;12.30;;;3.05;;
80711;SDS011;70078;51.596;5.678;2023-12-20T14:46:35;8.27;;;2.33;;
80711;SDS011;70078;51.596;5.678;2023-12-20T14:49:00;8.73;;;3.42;;
80711;SDS011;70078;51.596;5.678;2023-12-20T14:51:27;8.82;;;2.72;;
80711;SDS011;70078;51.596;5.678;2023-12-20T14:53:53;11.95;;;3.22;;